sensor_id;sensor_type;location;lat;lon;timestamp;temperature;humidity
14031;DHT22;7090;49.436;8.490;2023-01-01T00:00:00;14.40;99.90
14031;DHT22;7090;49.436;8.490;2023-01-01T00:02:26;14.50;92.90
14031;DHT22;7090;49.436;8.490;2023-01-01T00:04:51;14.50;64.50
14031;DHT22;7090;49.436;8.490;2023-01-01T00:07:17;14.60;17.40
14031;DHT22;7090;49.436;8.490;2023-01-01T00:09:43;14.60;37.30
14031;DHT22;7090;49.436;8.490;2023-01-01T00:12:27;14.60;34.00
14031;DHT22;7090;49.436;8.490;2023-01-01T00:14:53;14.60;44.90
14031;DHT22;7090;49.436;8.490;2023-01-01T00:17:18;14.50;51.10
14031;DHT22;7090;49.436;8.490;2023-01-01T00:19:44;14.40;99.90
14031;DHT22;7090;49.436;8.490;2023-01-01T00:22:09;14.40;99.90
14031;DHT22;7090;49.436;8.490;2023-01-01T00:24:35;14.40;99.90
14031;DHT22;7090;49.436;8.490;2023-01-01T00:27:00;14.50;99.90
14031;DHT22;7090;49.436;8.490;2023-01-01T00:29:26;14.60;99.90
14031;DHT22;7090;49.436;8.490;2023-01-01T00:31:52;14.60;90.90
14031;DHT22;7090;49.436;8.490;2023-01-01T00:34:17;14.50;99.90
14031;DHT22;7090;49.436;8.490;2023-01-01T00:36:43;14.50;99.90
14031;DHT22;7090;49.436;8.490;2023-01-01T00:39:08;14.50;99.90
14031;DHT22;7090;49.436;8.490;2023-01-01T00:41:34;14.70;99.20
14031;DHT22;7090;49.436;8.490;2023-01-01T00:44:00;14.70;70.20
14031;DHT22;7090;49.436;8.490;2023-01-01T00:46:25;14.70;25.80
14031;DHT22;7090;49.436;8.490;2023-01-01T00:48:51;14.70;33.00
14031;DHT22;7090;49.436;8.490;2023-01-01T00:51:16;14.60;78.00
14031;DHT22;7090;49.436;8.490;2023-01-01T00:53:42;14.70;39.80
14031;DHT22;7090;49.436;8.490;2023-01-01T00:56:08;14.70;12.20
14031;DHT22;7090;49.436;8.490;2023-01-01T00:58:33;14.70;1.90
14031;DHT22;7090;49.436;8.490;2023-01-01T01:00:59;14.70;1.00
14031;DHT22;7090;49.436;8.490;2023-01-01T01:03:24;14.70;1.00
14031;DHT22;7090;49.436;8.490;2023-01-01T01:05:58;14.70;1.00
14031;DHT22;7090;49.436;8.490;2023-01-01T01:08:25;14.80;1.00
14031;DHT22;7090;49.436;8.490;2023-01-01T01:10:51;14.90;1.00
14031;DHT22;7090;49.436;8.490;2023-01-01T01:13:17;14.80;1.00
14031;DHT22;7090;49.436;8.490;2023-01-01T01:15:42;15.00;1.00
14031;DHT22;7090;49.436;8.490;2023-01-01T01:18:08;14.90;1.00
14031;DHT22;7090;49.436;8.490;2023-01-01T01:20:34;15.00;1.00
14031;DHT22;7090;49.436;8.490;2023-01-01T01:22:59;15.10;1.00
14031;DHT22;7090;49.436;8.490;2023-01-01T01:25:25;15.00;1.00
14031;DHT22;7090;49.436;8.490;2023-01-01T01:27:51;15.10;1.00
14031;DHT22;7090;49.436;8.490;2023-01-01T01:30:16;15.20;1.00
14031;DHT22;7090;49.436;8.490;2023-01-01T01:32:42;15.10;1.00
14031;DHT22;7090;49.436;8.490;2023-01-01T01:35:07;15.10;1.00
14031;DHT22;7090;49.436;8.490;2023-01-01T01:37:33;15.00;1.00
14031;DHT22;7090;49.436;8.490;2023-01-01T01:39:59;14.90;1.00
14031;DHT22;7090;49.436;8.490;2023-01-01T01:42:25;14.90;1.00
14031;DHT22;7090;49.436;8.490;2023-01-01T01:44:54;14.90;1.00
14031;DHT22;7090;49.436;8.490;2023-01-01T01:47:37;14.80;1.00
14031;DHT22;7090;49.436;8.490;2023-01-01T01:50:10;14.90;1.00
14031;DHT22;7090;49.436;8.490;2023-01-01T01:52:40;14.80;1.00
14031;DHT22;7090;49.436;8.490;2023-01-01T01:55:07;14.80;1.00
14031;DHT22;7090;49.436;8.490;2023-01-01T01:57:34;14.80;1.00
14031;DHT22;7090;49.436;8.490;2023-01-01T02:00:00;14.80;1.00
14031;DHT22;7090;49.436;8.490;2023-01-01T02:02:35;14.90;1.00
14031;DHT22;7090;49.436;8.490;2023-01-01T02:05:02;14.90;1.00
14031;DHT22;7090;49.436;8.490;2023-01-01T02:07:30;14.90;1.00
14031;DHT22;7090;49.436;8.490;2023-01-01T02:09:57;14.90;1.00
14031;DHT22;7090;49.436;8.490;2023-01-01T02:12:24;14.90;1.00
14031;DHT22;7090;49.436;8.490;2023-01-01T02:14:50;14.90;1.00
14031;DHT22;7090;49.436;8.490;2023-01-01T02:17:28;15.00;1.00
14031;DHT22;7090;49.436;8.490;2023-01-01T02:20:15;15.00;1.00
14031;DHT22;7090;49.436;8.490;2023-01-01T02:28:56;14.90;1.00
14031;DHT22;7090;49.436;8.490;2023-01-01T02:31:28;14.80;1.00
14031;DHT22;7090;49.436;8.490;2023-01-01T02:33:59;14.80;1.00
14031;DHT22;7090;49.436;8.490;2023-01-01T02:36:26;14.80;1.00
14031;DHT22;7090;49.436;8.490;2023-01-01T02:38:56;14.70;1.00
14031;DHT22;7090;49.436;8.490;2023-01-01T02:41:53;14.80;1.00
14031;DHT22;7090;49.436;8.490;2023-01-01T02:44:21;14.80;1.00
14031;DHT22;7090;49.436;8.490;2023-01-01T02:46:47;14.80;1.00
14031;DHT22;7090;49.436;8.490;2023-01-01T02:49:12;14.80;1.00
14031;DHT22;7090;49.436;8.490;2023-01-01T02:54:44;14.70;1.00
14031;DHT22;7090;49.436;8.490;2023-01-01T03:17:03;14.50;1.00
14031;DHT22;7090;49.436;8.490;2023-01-01T03:19:38;14.30;1.00
14031;DHT22;7090;49.436;8.490;2023-01-01T03:22:10;14.40;1.00
14031;DHT22;7090;49.436;8.490;2023-01-01T03:25:05;14.40;1.00
14031;DHT22;7090;49.436;8.490;2023-01-01T03:30:45;14.40;1.00
14031;DHT22;7090;49.436;8.490;2023-01-01T03:33:25;14.40;1.00
14031;DHT22;7090;49.436;8.490;2023-01-01T03:35:56;14.30;1.00
14031;DHT22;7090;49.436;8.490;2023-01-01T03:41:01;14.30;40.80
14031;DHT22;7090;49.436;8.490;2023-01-01T03:43:34;14.30;22.80
14031;DHT22;7090;49.436;8.490;2023-01-01T03:46:03;14.20;65.40
14031;DHT22;7090;49.436;8.490;2023-01-01T03:48:29;14.10;99.90
14031;DHT22;7090;49.436;8.490;2023-01-01T03:51:22;14.00;99.90
14031;DHT22;7090;49.436;8.490;2023-01-01T03:53:51;14.10;99.90
14031;DHT22;7090;49.436;8.490;2023-01-01T03:59:15;14.00;99.90
14031;DHT22;7090;49.436;8.490;2023-01-01T04:01:47;14.00;99.90
14031;DHT22;7090;49.436;8.490;2023-01-01T04:04:15;13.90;99.90
14031;DHT22;7090;49.436;8.490;2023-01-01T04:06:41;14.00;99.90
14031;DHT22;7090;49.436;8.490;2023-01-01T04:09:13;13.90;99.90
14031;DHT22;7090;49.436;8.490;2023-01-01T04:11:42;13.90;99.90
14031;DHT22;7090;49.436;8.490;2023-01-01T04:16:56;14.10;99.90
14031;DHT22;7090;49.436;8.490;2023-01-01T04:19:21;14.10;99.90
14031;DHT22;7090;49.436;8.490;2023-01-01T04:21:47;14.00;99.90
14031;DHT22;7090;49.436;8.490;2023-01-01T04:24:13;14.00;99.90
14031;DHT22;7090;49.436;8.490;2023-01-01T04:26:39;14.00;99.90
14031;DHT22;7090;49.436;8.490;2023-01-01T04:29:05;13.90;99.90
14031;DHT22;7090;49.436;8.490;2023-01-01T04:31:30;14.00;99.90
14031;DHT22;7090;49.436;8.490;2023-01-01T04:33:56;14.10;40.90
14031;DHT22;7090;49.436;8.490;2023-01-01T04:36:21;14.10;36.50
14031;DHT22;7090;49.436;8.490;2023-01-01T04:38:47;14.10;22.90
14031;DHT22;7090;49.436;8.490;2023-01-01T04:41:13;14.10;45.00
14031;DHT22;7090;49.436;8.490;2023-01-01T04:43:38;14.10;26.40
14031;DHT22;7090;49.436;8.490;2023-01-01T04:46:04;14.10;24.40
14031;DHT22;7090;49.436;8.490;2023-01-01T04:48:30;14.00;44.90
14031;DHT22;7090;49.436;8.490;2023-01-01T04:50:58;13.90;99.90
14031;DHT22;7090;49.436;8.490;2023-01-01T04:53:24;14.00;99.90
14031;DHT22;7090;49.436;8.490;2023-01-01T04:55:50;13.80;99.90
14031;DHT22;7090;49.436;8.490;2023-01-01T04:58:16;13.80;99.90
14031;DHT22;7090;49.436;8.490;2023-01-01T05:00:42;13.80;99.90
14031;DHT22;7090;49.436;8.490;2023-01-01T05:03:08;13.80;99.90
14031;DHT22;7090;49.436;8.490;2023-01-01T05:05:33;13.80;99.90
14031;DHT22;7090;49.436;8.490;2023-01-01T05:07:59;13.80;99.90
14031;DHT22;7090;49.436;8.490;2023-01-01T05:10:24;13.70;99.90
14031;DHT22;7090;49.436;8.490;2023-01-01T05:12:50;13.70;99.90
14031;DHT22;7090;49.436;8.490;2023-01-01T05:15:15;13.70;99.90
14031;DHT22;7090;49.436;8.490;2023-01-01T05:17:41;13.70;99.90
14031;DHT22;7090;49.436;8.490;2023-01-01T05:20:07;13.70;99.90
14031;DHT22;7090;49.436;8.490;2023-01-01T05:22:33;13.60;99.90
14031;DHT22;7090;49.436;8.490;2023-01-01T05:24:58;13.70;99.90
14031;DHT22;7090;49.436;8.490;2023-01-01T05:27:24;13.70;99.90
14031;DHT22;7090;49.436;8.490;2023-01-01T05:29:49;13.60;99.90
14031;DHT22;7090;49.436;8.490;2023-01-01T05:32:15;13.60;99.90
14031;DHT22;7090;49.436;8.490;2023-01-01T05:34:40;13.60;99.90
14031;DHT22;7090;49.436;8.490;2023-01-01T05:37:06;13.60;99.90
14031;DHT22;7090;49.436;8.490;2023-01-01T05:39:31;13.60;99.90
14031;DHT22;7090;49.436;8.490;2023-01-01T05:41:57;13.50;99.90
14031;DHT22;7090;49.436;8.490;2023-01-01T05:44:22;13.40;99.90
14031;DHT22;7090;49.436;8.490;2023-01-01T05:46:48;13.40;99.90
14031;DHT22;7090;49.436;8.490;2023-01-01T05:49:14;13.30;99.90
14031;DHT22;7090;49.436;8.490;2023-01-01T05:51:39;13.40;99.90
14031;DHT22;7090;49.436;8.490;2023-01-01T05:54:05;13.50;99.90
14031;DHT22;7090;49.436;8.490;2023-01-01T05:56:31;13.50;99.90
14031;DHT22;7090;49.436;8.490;2023-01-01T05:58:56;13.50;99.90
14031;DHT22;7090;49.436;8.490;2023-01-01T06:01:24;13.60;99.90
14031;DHT22;7090;49.436;8.490;2023-01-01T06:03:51;13.60;99.90
14031;DHT22;7090;49.436;8.490;2023-01-01T06:06:22;13.60;99.90
14031;DHT22;7090;49.436;8.490;2023-01-01T06:08:56;13.60;98.10
14031;DHT22;7090;49.436;8.490;2023-01-01T06:11:23;13.60;69.40
14031;DHT22;7090;49.436;8.490;2023-01-01T06:13:56;13.60;28.00
14031;DHT22;7090;49.436;8.490;2023-01-01T06:16:22;13.60;16.40
14031;DHT22;7090;49.436;8.490;2023-01-01T06:18:49;13.60;31.10
14031;DHT22;7090;49.436;8.490;2023-01-01T06:21:17;13.60;22.20
14031;DHT22;7090;49.436;8.490;2023-01-01T06:23:43;13.60;1.00
14031;DHT22;7090;49.436;8.490;2023-01-01T06:26:18;13.60;1.00
14031;DHT22;7090;49.436;8.490;2023-01-01T06:28:45;13.60;1.00
14031;DHT22;7090;49.436;8.490;2023-01-01T06:31:13;13.60;1.00
14031;DHT22;7090;49.436;8.490;2023-01-01T06:33:39;13.60;1.00
14031;DHT22;7090;49.436;8.490;2023-01-01T06:36:07;13.50;1.00
14031;DHT22;7090;49.436;8.490;2023-01-01T06:38:35;13.50;1.00
14031;DHT22;7090;49.436;8.490;2023-01-01T06:41:04;13.40;22.30
14031;DHT22;7090;49.436;8.490;2023-01-01T06:43:31;13.40;28.70
14031;DHT22;7090;49.436;8.490;2023-01-01T06:46:01;13.40;21.00
14031;DHT22;7090;49.436;8.490;2023-01-01T06:48:29;13.50;16.50
14031;DHT22;7090;49.436;8.490;2023-01-01T06:50:54;13.30;1.10
14031;DHT22;7090;49.436;8.490;2023-01-01T06:53:23;13.40;1.00
14031;DHT22;7090;49.436;8.490;2023-01-01T06:55:49;13.40;1.00
14031;DHT22;7090;49.436;8.490;2023-01-01T06:58:15;13.40;1.00
14031;DHT22;7090;49.436;8.490;2023-01-01T07:00:40;13.40;1.00
14031;DHT22;7090;49.436;8.490;2023-01-01T07:03:09;13.50;1.00
14031;DHT22;7090;49.436;8.490;2023-01-01T07:05:35;13.50;1.00
14031;DHT22;7090;49.436;8.490;2023-01-01T07:08:00;13.50;1.00
14031;DHT22;7090;49.436;8.490;2023-01-01T07:10:26;13.50;1.00
14031;DHT22;7090;49.436;8.490;2023-01-01T07:12:51;13.50;1.00
14031;DHT22;7090;49.436;8.490;2023-01-01T07:15:17;13.40;1.00
14031;DHT22;7090;49.436;8.490;2023-01-01T07:17:42;13.30;1.00
14031;DHT22;7090;49.436;8.490;2023-01-01T07:20:08;13.20;1.00
14031;DHT22;7090;49.436;8.490;2023-01-01T07:22:35;13.20;3.30
14031;DHT22;7090;49.436;8.490;2023-01-01T07:25:02;13.10;42.50
14031;DHT22;7090;49.436;8.490;2023-01-01T07:27:28;13.10;99.90
14031;DHT22;7090;49.436;8.490;2023-01-01T07:29:53;13.10;99.90
14031;DHT22;7090;49.436;8.490;2023-01-01T07:32:19;13.00;99.90
14031;DHT22;7090;49.436;8.490;2023-01-01T07:34:45;13.00;99.90
14031;DHT22;7090;49.436;8.490;2023-01-01T07:37:10;13.10;99.90
14031;DHT22;7090;49.436;8.490;2023-01-01T07:39:36;13.10;72.00
14031;DHT22;7090;49.436;8.490;2023-01-01T07:42:01;13.20;12.90
14031;DHT22;7090;49.436;8.490;2023-01-01T07:44:27;13.10;37.80
14031;DHT22;7090;49.436;8.490;2023-01-01T07:47:12;13.00;99.90
14031;DHT22;7090;49.436;8.490;2023-01-01T07:49:40;13.10;99.90
14031;DHT22;7090;49.436;8.490;2023-01-01T07:52:06;13.00;99.90
14031;DHT22;7090;49.436;8.490;2023-01-01T07:54:31;13.00;99.90
14031;DHT22;7090;49.436;8.490;2023-01-01T07:56:57;13.00;99.90
14031;DHT22;7090;49.436;8.490;2023-01-01T07:59:22;13.00;99.90
14031;DHT22;7090;49.436;8.490;2023-01-01T08:01:48;13.00;99.90
14031;DHT22;7090;49.436;8.490;2023-01-01T08:04:13;13.00;99.90
14031;DHT22;7090;49.436;8.490;2023-01-01T08:06:39;13.20;99.60
14031;DHT22;7090;49.436;8.490;2023-01-01T08:09:05;13.20;99.90
14031;DHT22;7090;49.436;8.490;2023-01-01T08:11:30;13.10;99.90
14031;DHT22;7090;49.436;8.490;2023-01-01T08:13:58;13.10;99.90
14031;DHT22;7090;49.436;8.490;2023-01-01T08:16:24;13.20;85.50
14031;DHT22;7090;49.436;8.490;2023-01-01T08:18:49;13.30;49.70
14031;DHT22;7090;49.436;8.490;2023-01-01T08:21:15;13.30;53.40
14031;DHT22;7090;49.436;8.490;2023-01-01T08:23:41;13.30;38.20
14031;DHT22;7090;49.436;8.490;2023-01-01T08:26:06;13.40;1.00
14031;DHT22;7090;49.436;8.490;2023-01-01T08:28:32;13.50;1.00
14031;DHT22;7090;49.436;8.490;2023-01-01T08:30:57;13.70;1.00
14031;DHT22;7090;49.436;8.490;2023-01-01T08:33:24;13.80;1.00
14031;DHT22;7090;49.436;8.490;2023-01-01T08:35:50;13.90;1.00
14031;DHT22;7090;49.436;8.490;2023-01-01T08:38:16;13.80;1.00
14031;DHT22;7090;49.436;8.490;2023-01-01T08:40:41;13.90;1.00
14031;DHT22;7090;49.436;8.490;2023-01-01T08:43:07;13.90;1.00
14031;DHT22;7090;49.436;8.490;2023-01-01T08:45:32;14.00;1.00
14031;DHT22;7090;49.436;8.490;2023-01-01T08:47:58;14.00;1.00
14031;DHT22;7090;49.436;8.490;2023-01-01T08:50:24;14.10;1.00
14031;DHT22;7090;49.436;8.490;2023-01-01T08:52:50;14.10;1.00
14031;DHT22;7090;49.436;8.490;2023-01-01T08:55:16;14.10;1.00
14031;DHT22;7090;49.436;8.490;2023-01-01T08:57:41;14.30;1.00
14031;DHT22;7090;49.436;8.490;2023-01-01T09:00:07;14.40;1.00
14031;DHT22;7090;49.436;8.490;2023-01-01T09:02:34;14.50;1.00
14031;DHT22;7090;49.436;8.490;2023-01-01T09:04:59;14.60;1.00
14031;DHT22;7090;49.436;8.490;2023-01-01T09:07:25;14.60;1.00
14031;DHT22;7090;49.436;8.490;2023-01-01T09:09:50;14.70;1.00
14031;DHT22;7090;49.436;8.490;2023-01-01T09:12:16;14.80;1.00
14031;DHT22;7090;49.436;8.490;2023-01-01T09:14:42;14.90;1.00
14031;DHT22;7090;49.436;8.490;2023-01-01T09:17:10;14.90;1.00
14031;DHT22;7090;49.436;8.490;2023-01-01T09:19:36;14.90;1.00
14031;DHT22;7090;49.436;8.490;2023-01-01T09:22:02;15.00;1.00
14031;DHT22;7090;49.436;8.490;2023-01-01T09:24:27;15.10;1.00
14031;DHT22;7090;49.436;8.490;2023-01-01T09:26:53;15.30;1.00
14031;DHT22;7090;49.436;8.490;2023-01-01T09:29:18;15.40;1.00
14031;DHT22;7090;49.436;8.490;2023-01-01T09:31:46;15.40;1.00
14031;DHT22;7090;49.436;8.490;2023-01-01T09:34:12;15.50;1.00
14031;DHT22;7090;49.436;8.490;2023-01-01T09:36:38;15.60;1.00
14031;DHT22;7090;49.436;8.490;2023-01-01T09:39:03;15.80;1.00
14031;DHT22;7090;49.436;8.490;2023-01-01T09:49:44;16.00;1.00
14031;DHT22;7090;49.436;8.490;2023-01-01T09:52:12;16.10;1.00
14031;DHT22;7090;49.436;8.490;2023-01-01T09:54:57;16.30;1.00
14031;DHT22;7090;49.436;8.490;2023-01-01T09:57:28;16.30;1.00
14031;DHT22;7090;49.436;8.490;2023-01-01T09:59:56;16.30;1.00
14031;DHT22;7090;49.436;8.490;2023-01-01T10:05:24;16.60;1.00
14031;DHT22;7090;49.436;8.490;2023-01-01T10:08:08;16.70;1.00
14031;DHT22;7090;49.436;8.490;2023-01-01T10:10:46;16.70;1.00
14031;DHT22;7090;49.436;8.490;2023-01-01T10:13:38;16.80;1.00
14031;DHT22;7090;49.436;8.490;2023-01-01T10:18:44;16.70;1.00
14031;DHT22;7090;49.436;8.490;2023-01-01T10:21:35;16.80;13.40
14031;DHT22;7090;49.436;8.490;2023-01-01T10:24:25;16.90;1.00
14031;DHT22;7090;49.436;8.490;2023-01-01T10:26:55;17.00;1.00
14031;DHT22;7090;49.436;8.490;2023-01-01T10:29:30;16.90;99.90
14031;DHT22;7090;49.436;8.490;2023-01-01T10:31:57;16.90;99.90
14031;DHT22;7090;49.436;8.490;2023-01-01T10:34:29;16.90;70.20
14031;DHT22;7090;49.436;8.490;2023-01-01T10:36:58;16.90;99.90
14031;DHT22;7090;49.436;8.490;2023-01-01T10:39:25;16.80;99.90
14031;DHT22;7090;49.436;8.490;2023-01-01T10:41:51;17.00;99.90
14031;DHT22;7090;49.436;8.490;2023-01-01T10:44:30;16.90;99.90
14031;DHT22;7090;49.436;8.490;2023-01-01T10:46:58;16.90;99.90
14031;DHT22;7090;49.436;8.490;2023-01-01T10:49:24;17.00;99.90
14031;DHT22;7090;49.436;8.490;2023-01-01T10:51:51;17.00;99.90
14031;DHT22;7090;49.436;8.490;2023-01-01T10:54:34;17.00;99.90
14031;DHT22;7090;49.436;8.490;2023-01-01T10:59:40;17.10;99.90
14031;DHT22;7090;49.436;8.490;2023-01-01T11:02:23;17.00;99.90
14031;DHT22;7090;49.436;8.490;2023-01-01T11:04:50;17.00;99.90
14031;DHT22;7090;49.436;8.490;2023-01-01T11:07:30;17.20;1.00
14031;DHT22;7090;49.436;8.490;2023-01-01T11:10:02;17.30;1.00
14031;DHT22;7090;49.436;8.490;2023-01-01T11:12:33;17.40;1.00
14031;DHT22;7090;49.436;8.490;2023-01-01T11:14:59;17.30;1.00
14031;DHT22;7090;49.436;8.490;2023-01-01T11:17:27;17.00;1.00
14031;DHT22;7090;49.436;8.490;2023-01-01T11:19:55;16.90;1.00
14031;DHT22;7090;49.436;8.490;2023-01-01T11:22:44;16.80;99.90
14031;DHT22;7090;49.436;8.490;2023-01-01T11:25:29;16.70;99.90
14031;DHT22;7090;49.436;8.490;2023-01-01T11:30:41;16.60;99.90
14031;DHT22;7090;49.436;8.490;2023-01-01T11:33:22;16.50;99.90
14031;DHT22;7090;49.436;8.490;2023-01-01T11:35:53;16.50;99.90
14031;DHT22;7090;49.436;8.490;2023-01-01T11:38:20;16.40;99.90
14031;DHT22;7090;49.436;8.490;2023-01-01T11:40:51;16.40;99.90
14031;DHT22;7090;49.436;8.490;2023-01-01T11:43:35;16.30;99.90
14031;DHT22;7090;49.436;8.490;2023-01-01T11:46:06;16.30;99.90
14031;DHT22;7090;49.436;8.490;2023-01-01T11:48:34;16.40;99.90
14031;DHT22;7090;49.436;8.490;2023-01-01T11:51:03;16.40;99.90
14031;DHT22;7090;49.436;8.490;2023-01-01T11:53:39;16.30;99.90
14031;DHT22;7090;49.436;8.490;2023-01-01T11:56:15;16.30;99.90
14031;DHT22;7090;49.436;8.490;2023-01-01T11:59:11;16.30;99.90
14031;DHT22;7090;49.436;8.490;2023-01-01T12:02:10;16.30;99.90
14031;DHT22;7090;49.436;8.490;2023-01-01T12:04:49;16.30;1.00
14031;DHT22;7090;49.436;8.490;2023-01-01T12:07:37;16.30;99.90
14031;DHT22;7090;49.436;8.490;2023-01-01T12:10:08;16.30;99.90
14031;DHT22;7090;49.436;8.490;2023-01-01T12:12:49;16.40;99.90
14031;DHT22;7090;49.436;8.490;2023-01-01T12:15:20;16.40;99.90
14031;DHT22;7090;49.436;8.490;2023-01-01T12:21:00;16.40;99.90
14031;DHT22;7090;49.436;8.490;2023-01-01T12:23:28;16.40;99.90
14031;DHT22;7090;49.436;8.490;2023-01-01T12:26:08;16.40;99.90
14031;DHT22;7090;49.436;8.490;2023-01-01T12:34:26;16.30;99.90
14031;DHT22;7090;49.436;8.490;2023-01-01T12:42:54;16.40;99.90
14031;DHT22;7090;49.436;8.490;2023-01-01T12:45:27;16.40;99.90
14031;DHT22;7090;49.436;8.490;2023-01-01T12:59:02;16.40;99.90
14031;DHT22;7090;49.436;8.490;2023-01-01T13:01:32;16.40;99.90
14031;DHT22;7090;49.436;8.490;2023-01-01T13:04:06;16.40;99.90
14031;DHT22;7090;49.436;8.490;2023-01-01T13:09:09;16.40;99.90
14031;DHT22;7090;49.436;8.490;2023-01-01T13:11:36;16.40;99.90
14031;DHT22;7090;49.436;8.490;2023-01-01T13:14:02;16.40;99.90
14031;DHT22;7090;49.436;8.490;2023-01-01T13:16:33;16.40;99.90
14031;DHT22;7090;49.436;8.490;2023-01-01T13:19:00;16.40;99.90
14031;DHT22;7090;49.436;8.490;2023-01-01T13:21:25;16.40;99.90
14031;DHT22;7090;49.436;8.490;2023-01-01T13:23:53;16.50;99.90
14031;DHT22;7090;49.436;8.490;2023-01-01T13:42:45;16.20;99.90
14031;DHT22;7090;49.436;8.490;2023-01-01T13:45:38;16.20;99.90
14031;DHT22;7090;49.436;8.490;2023-01-01T13:51:14;16.20;99.90
14031;DHT22;7090;49.436;8.490;2023-01-01T14:02:07;16.10;99.90
14031;DHT22;7090;49.436;8.490;2023-01-01T14:04:48;16.10;1.00
14031;DHT22;7090;49.436;8.490;2023-01-01T14:09:43;16.10;99.90
14031;DHT22;7090;49.436;8.490;2023-01-01T14:12:14;16.20;99.90
14031;DHT22;7090;49.436;8.490;2023-01-01T14:14:40;16.10;76.80
14031;DHT22;7090;49.436;8.490;2023-01-01T14:17:06;16.00;99.90
14031;DHT22;7090;49.436;8.490;2023-01-01T14:19:32;15.90;99.90
14031;DHT22;7090;49.436;8.490;2023-01-01T14:21:58;15.80;99.90
14031;DHT22;7090;49.436;8.490;2023-01-01T14:24:25;15.80;1.00
14031;DHT22;7090;49.436;8.490;2023-01-01T14:26:53;15.70;1.00
14031;DHT22;7090;49.436;8.490;2023-01-01T14:29:29;15.70;1.00
14031;DHT22;7090;49.436;8.490;2023-01-01T14:32:10;15.80;3.70
14031;DHT22;7090;49.436;8.490;2023-01-01T14:34:36;15.80;1.00
14031;DHT22;7090;49.436;8.490;2023-01-01T14:37:03;15.80;1.00
14031;DHT22;7090;49.436;8.490;2023-01-01T14:39:34;15.70;1.00
14031;DHT22;7090;49.436;8.490;2023-01-01T14:42:10;15.60;1.00
14031;DHT22;7090;49.436;8.490;2023-01-01T14:44:48;15.70;1.00
14031;DHT22;7090;49.436;8.490;2023-01-01T14:47:24;15.60;1.00
14031;DHT22;7090;49.436;8.490;2023-01-01T14:49:51;15.60;1.00
14031;DHT22;7090;49.436;8.490;2023-01-01T14:52:25;15.60;1.00
14031;DHT22;7090;49.436;8.490;2023-01-01T14:54:52;15.60;1.00
14031;DHT22;7090;49.436;8.490;2023-01-01T14:57:33;15.60;1.00
14031;DHT22;7090;49.436;8.490;2023-01-01T15:00:00;15.60;1.00
14031;DHT22;7090;49.436;8.490;2023-01-01T15:02:33;15.70;1.00
14031;DHT22;7090;49.436;8.490;2023-01-01T15:07:58;15.50;1.00
14031;DHT22;7090;49.436;8.490;2023-01-01T15:10:29;15.40;1.00
14031;DHT22;7090;49.436;8.490;2023-01-01T15:12:58;15.40;1.00
14031;DHT22;7090;49.436;8.490;2023-01-01T15:15:35;15.40;1.00
14031;DHT22;7090;49.436;8.490;2023-01-01T15:18:01;15.40;1.00
14031;DHT22;7090;49.436;8.490;2023-01-01T15:20:27;15.40;1.00
14031;DHT22;7090;49.436;8.490;2023-01-01T15:22:53;15.40;1.00
14031;DHT22;7090;49.436;8.490;2023-01-01T15:25:19;15.30;1.00
14031;DHT22;7090;49.436;8.490;2023-01-01T15:27:53;15.30;1.00
14031;DHT22;7090;49.436;8.490;2023-01-01T15:30:27;15.20;1.00
14031;DHT22;7090;49.436;8.490;2023-01-01T15:32:55;15.30;99.90
14031;DHT22;7090;49.436;8.490;2023-01-01T15:35:32;15.30;99.90
14031;DHT22;7090;49.436;8.490;2023-01-01T15:38:09;15.30;99.90
14031;DHT22;7090;49.436;8.490;2023-01-01T15:40:36;15.20;99.90
14031;DHT22;7090;49.436;8.490;2023-01-01T15:45:38;15.20;99.90
14031;DHT22;7090;49.436;8.490;2023-01-01T15:50:39;15.20;99.90
14031;DHT22;7090;49.436;8.490;2023-01-01T15:55:55;15.10;1.00
14031;DHT22;7090;49.436;8.490;2023-01-01T15:58:39;15.10;1.00
14031;DHT22;7090;49.436;8.490;2023-01-01T16:01:12;15.10;99.90
14031;DHT22;7090;49.436;8.490;2023-01-01T16:03:39;15.10;99.90
14031;DHT22;7090;49.436;8.490;2023-01-01T16:06:06;15.10;99.90
14031;DHT22;7090;49.436;8.490;2023-01-01T16:08:31;15.10;99.90
14031;DHT22;7090;49.436;8.490;2023-01-01T16:10:57;15.10;99.90
14031;DHT22;7090;49.436;8.490;2023-01-01T16:13:23;15.00;99.90
14031;DHT22;7090;49.436;8.490;2023-01-01T16:15:54;14.90;99.90
14031;DHT22;7090;49.436;8.490;2023-01-01T16:18:24;14.90;99.90
14031;DHT22;7090;49.436;8.490;2023-01-01T16:20:50;14.80;1.00
14031;DHT22;7090;49.436;8.490;2023-01-01T16:23:17;14.80;1.00
14031;DHT22;7090;49.436;8.490;2023-01-01T16:25:42;14.70;99.90
14031;DHT22;7090;49.436;8.490;2023-01-01T16:28:08;14.60;99.90
14031;DHT22;7090;49.436;8.490;2023-01-01T16:30:34;14.60;99.90
14031;DHT22;7090;49.436;8.490;2023-01-01T16:32:59;14.50;99.90
14031;DHT22;7090;49.436;8.490;2023-01-01T16:35:25;14.50;1.00
14031;DHT22;7090;49.436;8.490;2023-01-01T16:37:50;14.50;1.00
14031;DHT22;7090;49.436;8.490;2023-01-01T16:40:16;14.50;99.90
14031;DHT22;7090;49.436;8.490;2023-01-01T16:42:42;14.50;99.90
14031;DHT22;7090;49.436;8.490;2023-01-01T16:45:16;14.50;99.90
14031;DHT22;7090;49.436;8.490;2023-01-01T16:47:42;14.60;99.90
14031;DHT22;7090;49.436;8.490;2023-01-01T16:50:08;14.60;99.90
14031;DHT22;7090;49.436;8.490;2023-01-01T16:52:35;14.60;99.90
14031;DHT22;7090;49.436;8.490;2023-01-01T16:55:00;14.70;99.90
14031;DHT22;7090;49.436;8.490;2023-01-01T16:57:26;14.60;99.90
14031;DHT22;7090;49.436;8.490;2023-01-01T16:59:52;14.60;99.90
14031;DHT22;7090;49.436;8.490;2023-01-01T17:02:17;14.60;99.90
14031;DHT22;7090;49.436;8.490;2023-01-01T17:04:43;14.60;1.00
14031;DHT22;7090;49.436;8.490;2023-01-01T17:07:08;14.60;99.90
14031;DHT22;7090;49.436;8.490;2023-01-01T17:09:34;14.40;99.90
14031;DHT22;7090;49.436;8.490;2023-01-01T17:11:59;14.30;99.90
14031;DHT22;7090;49.436;8.490;2023-01-01T17:14:25;14.20;99.90
14031;DHT22;7090;49.436;8.490;2023-01-01T17:16:51;14.10;99.90
14031;DHT22;7090;49.436;8.490;2023-01-01T17:19:19;14.10;99.90
14031;DHT22;7090;49.436;8.490;2023-01-01T17:21:45;14.10;99.90
14031;DHT22;7090;49.436;8.490;2023-01-01T17:24:11;14.00;99.90
14031;DHT22;7090;49.436;8.490;2023-01-01T17:26:37;14.00;99.90
14031;DHT22;7090;49.436;8.490;2023-01-01T17:29:03;14.00;99.90
14031;DHT22;7090;49.436;8.490;2023-01-01T17:31:31;14.00;99.90
14031;DHT22;7090;49.436;8.490;2023-01-01T17:33:56;14.10;99.90
14031;DHT22;7090;49.436;8.490;2023-01-01T17:36:22;14.10;1.00
14031;DHT22;7090;49.436;8.490;2023-01-01T17:38:48;14.20;89.80
14031;DHT22;7090;49.436;8.490;2023-01-01T17:41:14;14.20;1.00
14031;DHT22;7090;49.436;8.490;2023-01-01T17:43:45;14.20;99.90
14031;DHT22;7090;49.436;8.490;2023-01-01T17:46:22;14.20;99.90
14031;DHT22;7090;49.436;8.490;2023-01-01T17:48:49;14.30;99.90
14031;DHT22;7090;49.436;8.490;2023-01-01T17:51:15;14.40;99.90
14031;DHT22;7090;49.436;8.490;2023-01-01T17:53:42;14.40;99.90
14031;DHT22;7090;49.436;8.490;2023-01-01T17:56:13;14.50;99.90
14031;DHT22;7090;49.436;8.490;2023-01-01T17:58:39;14.50;99.90
14031;DHT22;7090;49.436;8.490;2023-01-01T18:03:51;14.90;1.00
14031;DHT22;7090;49.436;8.490;2023-01-01T18:06:17;14.70;1.00
14031;DHT22;7090;49.436;8.490;2023-01-01T18:08:43;14.70;1.00
14031;DHT22;7090;49.436;8.490;2023-01-01T18:11:08;14.80;1.00
14031;DHT22;7090;49.436;8.490;2023-01-01T18:13:34;14.80;99.90